sensor_id;sensor_type;location;lat;lon;timestamp;pressure;altitude;pressure_sealevel;temperature;humidity
30819;BME280;17546;42.674;23.284;2024-02-21T00:01:35;95370.16;;;12.05;47.10
30819;BME280;17546;42.674;23.284;2024-02-21T00:04:01;95382.47;;;12.25;46.74
30819;BME280;17546;42.674;23.284;2024-02-21T00:06:26;95388.47;;;12.17;46.65
30819;BME280;17546;42.674;23.284;2024-02-21T00:08:52;95365.59;;;12.02;46.98
30819;BME280;17546;42.674;23.284;2024-02-21T00:11:17;95334.88;;;11.85;46.99
30819;BME280;17546;42.674;23.284;2024-02-21T00:13:43;95384.69;;;11.94;47.27
30819;BME280;17546;42.674;23.284;2024-02-21T00:16:08;95385.69;;;12.17;47.08
30819;BME280;17546;42.674;23.284;2024-02-21T00:18:34;95384.41;;;12.18;46.98
30819;BME280;17546;42.674;23.284;2024-02-21T00:20:59;95359.47;;;11.72;47.28
30819;BME280;17546;42.674;23.284;2024-02-21T00:23:27;95381.78;;;11.83;47.53
30819;BME280;17546;42.674;23.284;2024-02-21T00:25:53;95348.47;;;11.83;47.09
30819;BME280;17546;42.674;23.284;2024-02-21T00:28:18;95380.56;;;11.64;47.63
30819;BME280;17546;42.674;23.284;2024-02-21T00:30:44;95365.75;;;11.46;48.24
30819;BME280;17546;42.674;23.284;2024-02-21T00:33:09;95374.84;;;11.26;48.89
30819;BME280;17546;42.674;23.284;2024-02-21T00:35:35;95377.75;;;11.58;48.17
30819;BME280;17546;42.674;23.284;2024-02-21T00:38:00;95364.88;;;11.14;49.11
30819;BME280;17546;42.674;23.284;2024-02-21T00:40:26;95369.72;;;11.40;48.84
30819;BME280;17546;42.674;23.284;2024-02-21T00:42:51;95373.25;;;11.61;48.64
30819;BME280;17546;42.674;23.284;2024-02-21T00:45:17;95376.47;;;11.79;48.08
30819;BME280;17546;42.674;23.284;2024-02-21T00:47:42;95372.59;;;11.71;47.67
30819;BME280;17546;42.674;23.284;2024-02-21T00:50:08;95349.50;;;11.86;47.75
30819;BME280;17546;42.674;23.284;2024-02-21T00:52:34;95341.56;;;11.99;47.31
30819;BME280;17546;42.674;23.284;2024-02-21T00:55:00;95333.72;;;12.24;46.75
30819;BME280;17546;42.674;23.284;2024-02-21T00:57:25;95363.53;;;12.60;46.34
30819;BME280;17546;42.674;23.284;2024-02-21T00:59:51;95337.97;;;12.56;46.21
30819;BME280;17546;42.674;23.284;2024-02-21T01:02:16;95357.88;;;12.87;45.87
30819;BME280;17546;42.674;23.284;2024-02-21T01:04:42;95343.47;;;12.88;45.54
30819;BME280;17546;42.674;23.284;2024-02-21T01:07:07;95326.06;;;12.93;45.47
30819;BME280;17546;42.674;23.284;2024-02-21T01:09:33;95331.19;;;13.06;45.06
30819;BME280;17546;42.674;23.284;2024-02-21T01:11:58;95343.13;;;13.23;44.91
30819;BME280;17546;42.674;23.284;2024-02-21T01:14:24;95312.69;;;12.54;45.42
30819;BME280;17546;42.674;23.284;2024-02-21T01:16:49;95309.69;;;12.52;45.53
30819;BME280;17546;42.674;23.284;2024-02-21T01:19:15;95314.56;;;12.69;45.28
30819;BME280;17546;42.674;23.284;2024-02-21T01:21:40;95323.69;;;12.75;45.42
30819;BME280;17546;42.674;23.284;2024-02-21T01:24:06;95328.03;;;12.81;45.22
30819;BME280;17546;42.674;23.284;2024-02-21T01:26:31;95302.00;;;12.04;46.38
30819;BME280;17546;42.674;23.284;2024-02-21T01:28:56;95336.13;;;12.42;46.12
30819;BME280;17546;42.674;23.284;2024-02-21T01:31:22;95311.44;;;12.18;46.15
30819;BME280;17546;42.674;23.284;2024-02-21T01:33:47;95333.97;;;12.26;46.29
30819;BME280;17546;42.674;23.284;2024-02-21T01:36:13;95309.25;;;11.96;46.58
30819;BME280;17546;42.674;23.284;2024-02-21T01:38:38;95302.72;;;12.31;46.08
30819;BME280;17546;42.674;23.284;2024-02-21T01:41:04;95294.13;;;12.34;45.68
30819;BME280;17546;42.674;23.284;2024-02-21T01:43:29;95313.47;;;12.17;46.11
30819;BME280;17546;42.674;23.284;2024-02-21T01:45:56;95315.31;;;12.26;46.03
30819;BME280;17546;42.674;23.284;2024-02-21T01:48:23;95320.47;;;12.45;45.71
30819;BME280;17546;42.674;23.284;2024-02-21T01:50:49;95318.09;;;12.26;45.79
30819;BME280;17546;42.674;23.284;2024-02-21T01:53:23;95300.94;;;11.96;45.92
30819;BME280;17546;42.674;23.284;2024-02-21T01:55:50;95313.56;;;12.34;45.57
30819;BME280;17546;42.674;23.284;2024-02-21T01:58:17;95309.22;;;12.65;44.88
30819;BME280;17546;42.674;23.284;2024-02-21T02:00:45;95285.56;;;12.38;45.03
30819;BME280;17546;42.674;23.284;2024-02-21T02:03:12;95309.81;;;12.06;45.54
30819;BME280;17546;42.674;23.284;2024-02-21T02:05:48;95290.03;;;11.66;46.24
30819;BME280;17546;42.674;23.284;2024-02-21T02:08:14;95280.81;;;11.49;46.84
30819;BME280;17546;42.674;23.284;2024-02-21T02:10:40;95316.69;;;12.10;46.18
30819;BME280;17546;42.674;23.284;2024-02-21T02:13:05;95306.25;;;11.99;45.88
30819;BME280;17546;42.674;23.284;2024-02-21T02:15:40;95305.06;;;12.06;46.15
30819;BME280;17546;42.674;23.284;2024-02-21T02:18:06;95309.09;;;12.43;45.33
30819;BME280;17546;42.674;23.284;2024-02-21T02:20:31;95307.66;;;12.58;44.92
30819;BME280;17546;42.674;23.284;2024-02-21T02:22:59;95295.03;;;12.57;44.93
30819;BME280;17546;42.674;23.284;2024-02-21T02:25:26;95294.50;;;12.53;44.83
30819;BME280;17546;42.674;23.284;2024-02-21T02:27:51;95285.97;;;12.19;45.27
30819;BME280;17546;42.674;23.284;2024-02-21T02:30:17;95277.44;;;12.29;45.05
30819;BME280;17546;42.674;23.284;2024-02-21T02:32:46;95290.22;;;12.52;44.71
30819;BME280;17546;42.674;23.284;2024-02-21T02:35:12;95268.22;;;12.49;44.64
30819;BME280;17546;42.674;23.284;2024-02-21T02:37:37;95304.50;;;12.77;44.46
30819;BME280;17546;42.674;23.284;2024-02-21T02:40:08;95296.28;;;12.56;44.90
30819;BME280;17546;42.674;23.284;2024-02-21T02:42:33;95297.03;;;12.51;45.08
30819;BME280;17546;42.674;23.284;2024-02-21T02:44:59;95278.66;;;12.22;45.27
30819;BME280;17546;42.674;23.284;2024-02-21T02:47:24;95286.88;;;11.79;46.47
30819;BME280;17546;42.674;23.284;2024-02-21T02:49:50;95289.50;;;11.88;46.55
30819;BME280;17546;42.674;23.284;2024-02-21T02:52:17;95290.16;;;11.77;46.68
30819;BME280;17546;42.674;23.284;2024-02-21T02:54:43;95301.28;;;12.09;46.03
30819;BME280;17546;42.674;23.284;2024-02-21T02:57:09;95298.22;;;12.02;45.96
30819;BME280;17546;42.674;23.284;2024-02-21T02:59:35;95294.63;;;11.69;46.59
30819;BME280;17546;42.674;23.284;2024-02-21T03:02:00;95298.44;;;12.04;46.12
30819;BME280;17546;42.674;23.284;2024-02-21T03:04:26;95296.22;;;11.82;46.40
30819;BME280;17546;42.674;23.284;2024-02-21T03:06:54;95269.38;;;11.41;46.87
30819;BME280;17546;42.674;23.284;2024-02-21T03:09:20;95304.06;;;11.83;46.40
30819;BME280;17546;42.674;23.284;2024-02-21T03:11:45;95298.22;;;11.75;46.50
30819;BME280;17546;42.674;23.284;2024-02-21T03:14:11;95289.28;;;11.66;46.72
30819;BME280;17546;42.674;23.284;2024-02-21T03:16:36;95301.28;;;12.09;45.69
30819;BME280;17546;42.674;23.284;2024-02-21T03:19:02;95301.81;;;12.13;45.63
30819;BME280;17546;42.674;23.284;2024-02-21T03:21:28;95315.06;;;11.98;45.83
30819;BME280;17546;42.674;23.284;2024-02-21T03:23:54;95312.47;;;11.89;46.01
30819;BME280;17546;42.674;23.284;2024-02-21T03:26:19;95287.41;;;11.57;46.43
30819;BME280;17546;42.674;23.284;2024-02-21T03:28:45;95287.09;;;12.02;45.78
30819;BME280;17546;42.674;23.284;2024-02-21T03:31:13;95310.78;;;12.29;45.20
30819;BME280;17546;42.674;23.284;2024-02-21T03:33:41;95296.69;;;12.38;45.04
30819;BME280;17546;42.674;23.284;2024-02-21T03:36:13;95320.41;;;12.76;44.62
30819;BME280;17546;42.674;23.284;2024-02-21T03:38:38;95317.66;;;12.82;44.26
30819;BME280;17546;42.674;23.284;2024-02-21T03:41:04;95295.94;;;12.86;44.01
30819;BME280;17546;42.674;23.284;2024-02-21T03:43:29;95298.28;;;13.05;43.74
30819;BME280;17546;42.674;23.284;2024-02-21T03:45:55;95338.72;;;12.94;43.77
30819;BME280;17546;42.674;23.284;2024-02-21T03:48:20;95326.41;;;13.18;43.35
30819;BME280;17546;42.674;23.284;2024-02-21T03:50:46;95329.25;;;13.29;43.22
30819;BME280;17546;42.674;23.284;2024-02-21T03:53:12;95303.16;;;13.21;43.28
30819;BME280;17546;42.674;23.284;2024-02-21T03:55:37;95312.06;;;13.31;43.10
30819;BME280;17546;42.674;23.284;2024-02-21T03:58:03;95307.72;;;13.24;43.30
30819;BME280;17546;42.674;23.284;2024-02-21T04:00:28;95319.22;;;13.49;42.81
30819;BME280;17546;42.674;23.284;2024-02-21T04:02:54;95321.50;;;13.56;42.80
30819;BME280;17546;42.674;23.284;2024-02-21T04:05:21;95329.34;;;13.57;42.92
30819;BME280;17546;42.674;23.284;2024-02-21T04:07:46;95323.81;;;13.69;42.58
30819;BME280;17546;42.674;23.284;2024-02-21T04:10:12;95323.78;;;13.57;42.53
30819;BME280;17546;42.674;23.284;2024-02-21T04:12:38;95320.19;;;12.80;43.79
30819;BME280;17546;42.674;23.284;2024-02-21T04:15:04;95323.69;;;12.75;44.05
30819;BME280;17546;42.674;23.284;2024-02-21T04:17:29;95318.84;;;12.70;44.03
30819;BME280;17546;42.674;23.284;2024-02-21T04:20:04;95313.22;;;13.07;43.58
30819;BME280;17546;42.674;23.284;2024-02-21T04:22:36;95300.06;;;12.96;43.35
30819;BME280;17546;42.674;23.284;2024-02-21T04:25:01;95311.66;;;13.00;43.46
30819;BME280;17546;42.674;23.284;2024-02-21T04:27:27;95304.66;;;13.11;43.27
30819;BME280;17546;42.674;23.284;2024-02-21T04:29:53;95308.22;;;13.17;43.19
30819;BME280;17546;42.674;23.284;2024-02-21T04:32:18;95304.22;;;13.29;43.05
30819;BME280;17546;42.674;23.284;2024-02-21T04:34:44;95316.91;;;13.41;42.56
30819;BME280;17546;42.674;23.284;2024-02-21T04:37:09;95326.53;;;13.40;42.59
30819;BME280;17546;42.674;23.284;2024-02-21T04:39:35;95307.78;;;13.35;42.69
30819;BME280;17546;42.674;23.284;2024-02-21T04:42:00;95323.78;;;13.57;42.63
30819;BME280;17546;42.674;23.284;2024-02-21T04:44:26;95308.81;;;13.43;42.58
30819;BME280;17546;42.674;23.284;2024-02-21T04:46:51;95328.84;;;13.59;42.17
30819;BME280;17546;42.674;23.284;2024-02-21T04:49:17;95327.88;;;13.68;42.37
30819;BME280;17546;42.674;23.284;2024-02-21T04:51:43;95319.97;;;13.55;42.24
30819;BME280;17546;42.674;23.284;2024-02-21T04:54:08;95315.19;;;13.50;42.22
30819;BME280;17546;42.674;23.284;2024-02-21T04:56:34;95310.81;;;13.37;42.23
30819;BME280;17546;42.674;23.284;2024-02-21T04:59:00;95335.19;;;13.54;42.13
30819;BME280;17546;42.674;23.284;2024-02-21T05:01:25;95334.25;;;13.19;42.65
30819;BME280;17546;42.674;23.284;2024-02-21T05:03:51;95318.91;;;12.75;43.41
30819;BME280;17546;42.674;23.284;2024-02-21T05:06:16;95315.88;;;12.79;43.44
30819;BME280;17546;42.674;23.284;2024-02-21T05:08:42;95297.75;;;12.46;43.99
30819;BME280;17546;42.674;23.284;2024-02-21T05:11:07;95302.03;;;12.47;43.94
30819;BME280;17546;42.674;23.284;2024-02-21T05:13:33;95327.03;;;12.85;43.58
30819;BME280;17546;42.674;23.284;2024-02-21T05:15:58;95345.13;;;12.69;43.92
30819;BME280;17546;42.674;23.284;2024-02-21T05:18:27;95341.91;;;12.38;44.19
30819;BME280;17546;42.674;23.284;2024-02-21T05:20:53;95335.59;;;12.38;44.22
30819;BME280;17546;42.674;23.284;2024-02-21T05:23:18;95332.94;;;12.60;43.81
30819;BME280;17546;42.674;23.284;2024-02-21T05:25:44;95337.72;;;12.17;44.57
30819;BME280;17546;42.674;23.284;2024-02-21T05:28:09;95325.75;;;12.37;44.16
30819;BME280;17546;42.674;23.284;2024-02-21T05:30:34;95341.53;;;12.57;44.14
30819;BME280;17546;42.674;23.284;2024-02-21T05:33:06;95333.63;;;12.12;44.60
30819;BME280;17546;42.674;23.284;2024-02-21T05:35:32;95340.69;;;11.87;45.28
30819;BME280;17546;42.674;23.284;2024-02-21T05:37:58;95327.97;;;12.33;44.32
30819;BME280;17546;42.674;23.284;2024-02-21T05:40:24;95304.13;;;12.20;44.02
30819;BME280;17546;42.674;23.284;2024-02-21T05:42:50;95317.22;;;12.46;43.94
30819;BME280;17546;42.674;23.284;2024-02-21T05:45:17;95321.81;;;12.55;43.96
30819;BME280;17546;42.674;23.284;2024-02-21T05:47:43;95348.97;;;12.77;43.38
30819;BME280;17546;42.674;23.284;2024-02-21T05:50:09;95305.88;;;12.55;43.42
30819;BME280;17546;42.674;23.284;2024-02-21T05:52:35;95349.31;;;12.96;43.30
30819;BME280;17546;42.674;23.284;2024-02-21T05:55:00;95325.84;;;13.02;43.16
30819;BME280;17546;42.674;23.284;2024-02-21T05:57:26;95328.66;;;13.14;43.04
30819;BME280;17546;42.674;23.284;2024-02-21T05:59:51;95336.25;;;13.13;43.01
30819;BME280;17546;42.674;23.284;2024-02-21T06:02:17;95332.75;;;13.18;42.39
30819;BME280;17546;42.674;23.284;2024-02-21T06:04:42;95360.69;;;13.41;42.22
30819;BME280;17546;42.674;23.284;2024-02-21T06:07:09;95353.91;;;13.05;42.55
30819;BME280;17546;42.674;23.284;2024-02-21T06:09:35;95372.84;;;13.49;41.95
30819;BME280;17546;42.674;23.284;2024-02-21T06:12:00;95371.38;;;13.54;41.70
30819;BME280;17546;42.674;23.284;2024-02-21T06:14:26;95362.31;;;13.16;41.75
30819;BME280;17546;42.674;23.284;2024-02-21T06:16:53;95362.13;;;13.25;41.77
30819;BME280;17546;42.674;23.284;2024-02-21T06:19:18;95371.72;;;13.24;41.88
30819;BME280;17546;42.674;23.284;2024-02-21T06:21:44;95349.78;;;12.89;42.32
30819;BME280;17546;42.674;23.284;2024-02-21T06:24:09;95352.53;;;12.40;42.86
30819;BME280;17546;42.674;23.284;2024-02-21T06:26:35;95384.50;;;13.05;42.39
30819;BME280;17546;42.674;23.284;2024-02-21T06:29:00;95382.53;;;13.11;42.33
30819;BME280;17546;42.674;23.284;2024-02-21T06:31:27;95381.00;;;13.10;42.62
30819;BME280;17546;42.674;23.284;2024-02-21T06:33:53;95379.47;;;13.09;42.45
30819;BME280;17546;42.674;23.284;2024-02-21T06:36:18;95396.53;;;13.28;42.31
30819;BME280;17546;42.674;23.284;2024-02-21T06:38:44;95366.31;;;13.03;42.38
30819;BME280;17546;42.674;23.284;2024-02-21T06:41:16;95391.28;;;12.92;42.86
30819;BME280;17546;42.674;23.284;2024-02-21T06:43:44;95391.59;;;13.06;42.36
30819;BME280;17546;42.674;23.284;2024-02-21T06:46:10;95393.25;;;12.86;43.10
30819;BME280;17546;42.674;23.284;2024-02-21T06:48:35;95396.38;;;12.62;43.88
30819;BME280;17546;42.674;23.284;2024-02-21T06:51:01;95383.97;;;12.57;43.69
30819;BME280;17546;42.674;23.284;2024-02-21T06:53:26;95396.44;;;12.68;43.81
30819;BME280;17546;42.674;23.284;2024-02-21T06:55:51;95400.03;;;12.42;44.36
30819;BME280;17546;42.674;23.284;2024-02-21T06:58:17;95405.53;;;12.68;43.85
30819;BME280;17546;42.674;23.284;2024-02-21T07:00:43;95402.97;;;12.65;43.85
30819;BME280;17546;42.674;23.284;2024-02-21T07:03:08;95397.53;;;12.50;44.41
30819;BME280;17546;42.674;23.284;2024-02-21T07:05:34;95381.59;;;12.45;44.08
30819;BME280;17546;42.674;23.284;2024-02-21T07:07:59;95405.13;;;12.81;44.00
30819;BME280;17546;42.674;23.284;2024-02-21T07:10:25;95410.19;;;12.51;44.62
30819;BME280;17546;42.674;23.284;2024-02-21T07:12:50;95400.47;;;12.67;44.18
30819;BME280;17546;42.674;23.284;2024-02-21T07:15:17;95371.59;;;12.58;43.86
30819;BME280;17546;42.674;23.284;2024-02-21T07:17:43;95380.56;;;12.42;44.31
30819;BME280;17546;42.674;23.284;2024-02-21T07:20:09;95411.44;;;12.81;44.14
30819;BME280;17546;42.674;23.284;2024-02-21T07:22:34;95382.97;;;12.98;43.51
30819;BME280;17546;42.674;23.284;2024-02-21T07:25:00;95380.25;;;12.66;44.04
30819;BME280;17546;42.674;23.284;2024-02-21T07:27:25;95414.22;;;12.50;44.72
30819;BME280;17546;42.674;23.284;2024-02-21T07:29:54;95423.63;;;12.52;44.71
30819;BME280;17546;42.674;23.284;2024-02-21T07:32:19;95412.94;;;12.82;44.15
30819;BME280;17546;42.674;23.284;2024-02-21T07:34:44;95422.91;;;13.00;43.93
30819;BME280;17546;42.674;23.284;2024-02-21T07:37:10;95415.84;;;12.04;45.79
30819;BME280;17546;42.674;23.284;2024-02-21T07:39:36;95409.56;;;12.35;45.18
30819;BME280;17546;42.674;23.284;2024-02-21T07:42:05;95394.38;;;12.31;44.80
30819;BME280;17546;42.674;23.284;2024-02-21T07:44:31;95390.22;;;12.84;44.03
30819;BME280;17546;42.674;23.284;2024-02-21T07:46:57;95412.81;;;13.40;43.10
30819;BME280;17546;42.674;23.284;2024-02-21T07:49:23;95406.75;;;13.48;43.17
30819;BME280;17546;42.674;23.284;2024-02-21T07:51:48;95411.66;;;12.78;44.27
30819;BME280;17546;42.674;23.284;2024-02-21T07:54:14;95407.22;;;12.97;43.86
30819;BME280;17546;42.674;23.284;2024-02-21T07:56:39;95406.16;;;12.89;44.17
30819;BME280;17546;42.674;23.284;2024-02-21T07:59:05;95377.00;;;13.22;43.09
30819;BME280;17546;42.674;23.284;2024-02-21T08:01:30;95389.16;;;13.79;42.56
30819;BME280;17546;42.674;23.284;2024-02-21T08:03:56;95398.75;;;13.18;43.38
30819;BME280;17546;42.674;23.284;2024-02-21T08:06:21;95395.91;;;13.55;42.88
30819;BME280;17546;42.674;23.284;2024-02-21T08:08:47;95404.81;;;13.71;42.57
30819;BME280;17546;42.674;23.284;2024-02-21T08:11:13;95385.31;;;12.68;44.12
30819;BME280;17546;42.674;23.284;2024-02-21T08:13:38;95399.72;;;13.63;42.92
30819;BME280;17546;42.674;23.284;2024-02-21T08:16:04;95383.97;;;13.00;43.30
30819;BME280;17546;42.674;23.284;2024-02-21T08:18:29;95386.91;;;13.23;42.98
30819;BME280;17546;42.674;23.284;2024-02-21T08:20:55;95372.09;;;13.49;42.59
30819;BME280;17546;42.674;23.284;2024-02-21T08:23:23;95394.44;;;13.17;43.40
30819;BME280;17546;42.674;23.284;2024-02-21T08:25:48;95404.28;;;13.67;42.14
30819;BME280;17546;42.674;23.284;2024-02-21T08:28:14;95412.09;;;13.57;42.25
30819;BME280;17546;42.674;23.284;2024-02-21T08:30:40;95375.75;;;12.74;43.63
30819;BME280;17546;42.674;23.284;2024-02-21T08:33:09;95391.19;;;13.24;43.11
30819;BME280;17546;42.674;23.284;2024-02-21T08:35:35;95376.00;;;13.85;41.53
30819;BME280;17546;42.674;23.284;2024-02-21T08:38:00;95388.44;;;14.23;41.19
30819;BME280;17546;42.674;23.284;2024-02-21T08:40:25;95407.47;;;14.36;40.35
30819;BME280;17546;42.674;23.284;2024-02-21T08:42:51;95400.72;;;12.69;42.72
30819;BME280;17546;42.674;23.284;2024-02-21T08:45:16;95399.88;;;13.32;42.04
30819;BME280;17546;42.674;23.284;2024-02-21T08:47:42;95380.47;;;13.54;41.53
30819;BME280;17546;42.674;23.284;2024-02-21T08:50:08;95400.06;;;13.94;40.79
30819;BME280;17546;42.674;23.284;2024-02-21T08:52:35;95398.34;;;14.13;40.67
30819;BME280;17546;42.674;23.284;2024-02-21T08:55:00;95401.13;;;14.24;40.43
30819;BME280;17546;42.674;23.284;2024-02-21T08:57:27;95384.91;;;14.17;40.12
30819;BME280;17546;42.674;23.284;2024-02-21T08:59:52;95386.97;;;14.56;39.66
30819;BME280;17546;42.674;23.284;2024-02-21T09:02:18;95405.22;;;14.57;39.99
30819;BME280;17546;42.674;23.284;2024-02-21T09:04:43;95392.53;;;14.67;39.79
30819;BME280;17546;42.674;23.284;2024-02-21T09:07:10;95404.13;;;15.05;39.42
30819;BME280;17546;42.674;23.284;2024-02-21T09:09:35;95411.28;;;14.84;39.51
30819;BME280;17546;42.674;23.284;2024-02-21T09:12:01;95409.72;;;15.11;39.13
30819;BME280;17546;42.674;23.284;2024-02-21T09:14:32;95411.78;;;14.99;39.19
30819;BME280;17546;42.674;23.284;2024-02-21T09:16:57;95389.25;;;14.35;39.83
30819;BME280;17546;42.674;23.284;2024-02-21T09:19:23;95412.53;;;14.83;39.42
30819;BME280;17546;42.674;23.284;2024-02-21T09:21:48;95407.47;;;14.98;39.11
30819;BME280;17546;42.674;23.284;2024-02-21T09:24:14;95402.44;;;14.63;39.74
30819;BME280;17546;42.674;23.284;2024-02-21T09:26:40;95408.50;;;14.78;39.95
30819;BME280;17546;42.674;23.284;2024-02-21T09:29:05;95387.72;;;14.62;40.31
30819;BME280;17546;42.674;23.284;2024-02-21T09:31:31;95385.97;;;14.71;40.22
30819;BME280;17546;42.674;23.284;2024-02-21T09:33:56;95406.97;;;14.43;40.94
30819;BME280;17546;42.674;23.284;2024-02-21T09:36:22;95373.78;;;14.57;40.77
30819;BME280;17546;42.674;23.284;2024-02-21T09:38:48;95403.44;;;14.82;40.52
30819;BME280;17546;42.674;23.284;2024-02-21T09:41:17;95406.47;;;14.56;40.80
30819;BME280;17546;42.674;23.284;2024-02-21T09:43:44;95399.59;;;14.46;40.87
30819;BME280;17546;42.674;23.284;2024-02-21T09:46:17;95391.28;;;14.69;40.27
30819;BME280;17546;42.674;23.284;2024-02-21T09:51:15;95394.31;;;14.82;40.00
30819;BME280;17546;42.674;23.284;2024-02-21T09:53:42;95404.59;;;15.21;39.57
30819;BME280;17546;42.674;23.284;2024-02-21T09:56:08;95408.38;;;15.40;39.22
30819;BME280;17546;42.674;23.284;2024-02-21T09:58:34;95387.75;;;15.55;38.66
30819;BME280;17546;42.674;23.284;2024-02-21T10:01:00;95398.94;;;15.55;38.15
30819;BME280;17546;42.674;23.284;2024-02-21T10:03:25;95413.09;;;15.68;37.88
30819;BME280;17546;42.674;23.284;2024-02-21T10:05:51;95386.47;;;15.56;37.80
30819;BME280;17546;42.674;23.284;2024-02-21T10:08:17;95400.38;;;15.67;37.94
30819;BME280;17546;42.674;23.284;2024-02-21T10:10:44;95379.13;;;15.53;37.67
30819;BME280;17546;42.674;23.284;2024-02-21T10:13:21;95375.53;;;15.63;36.60
30819;BME280;17546;42.674;23.284;2024-02-21T10:15:47;95372.84;;;15.94;36.25
30819;BME280;17546;42.674;23.284;2024-02-21T10:18:17;95378.16;;;15.44;36.98
30819;BME280;17546;42.674;23.284;2024-02-21T10:20:43;95366.72;;;15.42;37.08
30819;BME280;17546;42.674;23.284;2024-02-21T10:23:09;95364.28;;;15.80;36.78
30819;BME280;17546;42.674;23.284;2024-02-21T10:25:35;95383.91;;;16.16;37.25
30819;BME280;17546;42.674;23.284;2024-02-21T10:28:06;95368.84;;;16.55;36.00
30819;BME280;17546;42.674;23.284;2024-02-21T10:30:32;95371.59;;;16.30;35.82
30819;BME280;17546;42.674;23.284;2024-02-21T10:32:58;95360.72;;;15.85;36.12
30819;BME280;17546;42.674;23.284;2024-02-21T10:35:31;95363.53;;;16.21;35.53
30819;BME280;17546;42.674;23.284;2024-02-21T10:37:57;95349.41;;;16.08;35.63
30819;BME280;17546;42.674;23.284;2024-02-21T10:40:24;95326.47;;;16.15;35.28
30819;BME280;17546;42.674;23.284;2024-02-21T10:42:54;95321.88;;;16.48;35.09
30819;BME280;17546;42.674;23.284;2024-02-21T10:45:22;95332.69;;;16.32;34.21
30819;BME280;17546;42.674;23.284;2024-02-21T10:47:51;95318.53;;;16.25;34.83
30819;BME280;17546;42.674;23.284;2024-02-21T10:50:19;95306.94;;;16.70;33.51
30819;BME280;17546;42.674;23.284;2024-02-21T10:52:55;95316.78;;;16.77;33.62
30819;BME280;17546;42.674;23.284;2024-02-21T10:55:34;95312.47;;;17.44;32.89
30819;BME280;17546;42.674;23.284;2024-02-21T10:58:03;95308.47;;;17.58;32.36
30819;BME280;17546;42.674;23.284;2024-02-21T11:00:29;95302.31;;;17.79;32.44
30819;BME280;17546;42.674;23.284;2024-02-21T11:02:57;95292.03;;;17.68;32.54
30819;BME280;17546;42.674;23.284;2024-02-21T11:05:24;95291.53;;;17.88;31.89
30819;BME280;17546;42.674;23.284;2024-02-21T11:07:50;95277.38;;;17.62;31.07
30819;BME280;17546;42.674;23.284;2024-02-21T11:10:23;95301.25;;;17.44;31.67
30819;BME280;17546;42.674;23.284;2024-02-21T11:12:53;95269.25;;;17.20;31.66
30819;BME280;17546;42.674;23.284;2024-02-21T11:15:19;95295.66;;;17.25;31.98
30819;BME280;17546;42.674;23.284;2024-02-21T11:17:53;95286.81;;;17.21;32.30
30819;BME280;17546;42.674;23.284;2024-02-21T11:20:20;95281.75;;;17.38;31.61
30819;BME280;17546;42.674;23.284;2024-02-21T11:22:46;95270.75;;;17.02;31.66
30819;BME280;17546;42.674;23.284;2024-02-21T11:25:21;95284.97;;;17.04;31.62
30819;BME280;17546;42.674;23.284;2024-02-21T11:27:46;95288.16;;;17.14;31.69
30819;BME280;17546;42.674;23.284;2024-02-21T11:30:12;95284.44;;;16.26;32.58
30819;BME280;17546;42.674;23.284;2024-02-21T11:32:41;95291.34;;;15.42;34.19
30819;BME280;17546;42.674;23.284;2024-02-21T11:35:07;95279.78;;;15.68;33.72
30819;BME280;17546;42.674;23.284;2024-02-21T11:37:34;95271.72;;;16.01;32.92
30819;BME280;17546;42.674;23.284;2024-02-21T11:40:02;95271.09;;;15.36;32.73
30819;BME280;17546;42.674;23.284;2024-02-21T11:42:29;95269.69;;;16.31;32.04
30819;BME280;17546;42.674;23.284;2024-02-21T11:44:56;95278.06;;;16.31;32.03
30819;BME280;17546;42.674;23.284;2024-02-21T11:47:22;95251.63;;;15.72;32.85
30819;BME280;17546;42.674;23.284;2024-02-21T11:49:48;95275.38;;;15.84;33.17
30819;BME280;17546;42.674;23.284;2024-02-21T11:52:24;95247.75;;;15.39;33.54
30819;BME280;17546;42.674;23.284;2024-02-21T11:54:51;95270.75;;;15.51;33.83
30819;BME280;17546;42.674;23.284;2024-02-21T11:57:19;95264.78;;;15.77;33.48
30819;BME280;17546;42.674;23.284;2024-02-21T11:59:45;95257.44;;;15.27;34.08
30819;BME280;17546;42.674;23.284;2024-02-21T12:02:12;95249.06;;;15.74;33.46
30819;BME280;17546;42.674;23.284;2024-02-21T12:04:37;95258.13;;;15.80;33.38
30819;BME280;17546;42.674;23.284;2024-02-21T12:07:04;95258.16;;;16.10;33.00
30819;BME280;17546;42.674;23.284;2024-02-21T12:09:30;95259.66;;;16.11;33.22
30819;BME280;17546;42.674;23.284;2024-02-21T12:12:01;95242.00;;;15.62;33.97
30819;BME280;17546;42.674;23.284;2024-02-21T12:14:28;95265.09;;;15.62;34.30
30819;BME280;17546;42.674;23.284;2024-02-21T12:16:54;95250.31;;;15.67;34.43
30819;BME280;17546;42.674;23.284;2024-02-21T12:19:20;95234.78;;;15.42;34.47
30819;BME280;17546;42.674;23.284;2024-02-21T12:21:48;95246.88;;;15.91;34.36
30819;BME280;17546;42.674;23.284;2024-02-21T12:24:16;95242.09;;;15.50;34.52
30819;BME280;17546;42.674;23.284;2024-02-21T12:26:42;95231.38;;;15.13;35.23
30819;BME280;17546;42.674;23.284;2024-02-21T12:29:08;95241.97;;;14.67;35.54
30819;BME280;17546;42.674;23.284;2024-02-21T12:31:39;95236.66;;;14.64;36.11
30819;BME280;17546;42.674;23.284;2024-02-21T12:34:05;95218.88;;;14.73;35.72
30819;BME280;17546;42.674;23.284;2024-02-21T12:36:31;95216.72;;;15.01;35.22
30819;BME280;17546;42.674;23.284;2024-02-21T12:38:57;95244.63;;;15.01;34.93
30819;BME280;17546;42.674;23.284;2024-02-21T12:41:23;95230.44;;;14.99;34.72
30819;BME280;17546;42.674;23.284;2024-02-21T12:43:51;95245.78;;;14.59;35.22
30819;BME280;17546;42.674;23.284;2024-02-21T12:46:16;95233.34;;;14.54;35.54
30819;BME280;17546;42.674;23.284;2024-02-21T12:48:42;95223.41;;;14.81;34.89